Saint Croix Falls, Wisconsin
Current Conditions -  °F | °C
As of 5:15 AM on Wednesday 26 Nov 2014 (Local Time) from KOEO Reporting Station
Overcast Overcast  
Wind Chill: 17°   Ceiling: 8500
Heat Index: 24°   Visibility: 10mi
Dew Point: 17°   Wind: 6mph
Humidity: 75%   Direction: 80°E
Pressure: 30.1"   Gusts: NA
Location:  45.41°N, 92.64°W
Report Text: KOEO 261115Z AUTO 08005KT 10SM OVC085 M05/M08 A3010 RMK AO2 T10461085
Loading
Personal Weather Stations






























Interactive Weather Map New forecast layout! Learn more

10-Day Weather Forecast

Advertisements
Track Severe Weather on mobile